Time;durP1;ratioP1;P1;durP2;ratioP2;P2;SDS_P1;SDS_P2;PMS_P1;PMS_P2;Temp;Humidity;BMP_temperature;BMP_pressure;BME280_temperature;BME280_humidity;BME280_pressure;Samples;Min_cycle;Max_cycle;Signal;HPM_P1;HPM_P2
2023/12/22 00:01:02;;;;;;;;;;;;;;;;;;5007293;28;19914;-53
2023/12/22 00:03:28;;;;;;;;;;;;;;;;;;5011815;28;20016;-52
2023/12/22 00:05:54;;;;;;;;;;;;;;;;;;5011732;28;19953;-52
2023/12/22 00:08:20;;;;;;;;;;;;;;;;;;4993921;28;19964;-52
2023/12/22 00:10:46;;;;;;;;;;;;;;;;;;5010928;28;19960;-51
2023/12/22 00:13:12;;;;;;;;;;;;;;;;;;5011736;28;20007;-51
2023/12/22 00:15:39;;;;;;;;;;;;;;;;;;5011482;28;19961;-49
2023/12/22 00:18:05;;;;;;;;;;;;;;;;;;5011329;28;19914;-51
2023/12/22 00:20:31;;;;;;;;;;;;;;;;;;5012404;28;20012;-52
2023/12/22 00:22:57;;;;;;;;;;;;;;;;;;5015070;28;20290;-50
2023/12/22 00:25:23;;;;;;;;;;;;;;;;;;5015457;28;19967;-50
2023/12/22 00:27:49;;;;;;;;;;;;;;;;;;5015020;28;19921;-49
2023/12/22 00:30:15;;;;;;;;;;;;;;;;;;5014705;28;19918;-50
2023/12/22 00:32:41;;;;;;;;;;;;;;;;;;5015088;28;19919;-52
2023/12/22 00:35:07;;;;;;;;;;;;;;;;;;4997501;28;20000;-53
2023/12/22 00:37:33;;;;;;;;;;;;;;;;;;5014934;28;19921;-52
2023/12/22 00:39:59;;;;;;;;;;;;;;;;;;5015094;28;19916;-52
2023/12/22 00:42:25;;;;;;;;;;;;;;;;;;5014601;28;19917;-50
2023/12/22 00:44:51;;;;;;;;;;;;;;;;;;5014681;28;19917;-52
2023/12/22 00:47:17;;;;;;;;;;;;;;;;;;4996478;28;20007;-52
2023/12/22 00:49:43;;;;;;;;;;;;;;;;;;4981139;28;19917;-54
2023/12/22 00:52:10;;;;;;;;;;;;;;;;;;5014414;28;19913;-53
2023/12/22 00:54:36;;;;;;;;;;;;;;;;;;5014594;28;19909;-49
2023/12/22 00:57:02;;;;;;;;;;;;;;;;;;5014573;28;19914;-53
2023/12/22 00:59:28;;;;;;;;;;;;;;;;;;5014630;28;19944;-49
2023/12/22 01:01:54;;;;;;;;;;;;;;;;;;5014175;28;20377;-49
2023/12/22 01:04:20;;;;;;;;;;;;;;;;;;4996537;28;20493;-52
2023/12/22 01:06:46;;;;;;;;;;;;;;;;;;5014470;28;19924;-49
2023/12/22 01:09:14;;;;;;;;;;;;;;;;;;5014172;28;19913;-51
2023/12/22 01:11:40;;;;;;;;;;;;;;;;;;5014248;28;19914;-51
2023/12/22 01:14:07;;;;;;;;;;;;;;;;;;5014228;28;20263;-49
2023/12/22 01:16:33;;;;;;;;;;;;;;;;;;5013885;28;19918;-50
2023/12/22 01:18:59;;;;;;;;;;;;;;;;;;5014340;28;19914;-50
2023/12/22 01:21:25;;;;;;;;;;;;;;;;;;4996082;28;19914;-49
2023/12/22 01:23:51;;;;;;;;;;;;;;;;;;5014018;28;19914;-52
2023/12/22 01:26:17;;;;;;;;;;;;;;;;;;5014076;28;19921;-51
2023/12/22 01:28:43;;;;;;;;;;;;;;;;;;4996317;28;20397;-49
2023/12/22 01:31:09;;;;;;;;;;;;;;;;;;5013465;28;20013;-52
2023/12/22 01:33:35;;;;;;;;;;;;;;;;;;4995734;28;19968;-50
2023/12/22 01:36:01;;;;;;;;;;;;;;;;;;5013647;28;20406;-51
2023/12/22 01:38:27;;;;;;;;;;;;;;;;;;5014051;28;19960;-50
2023/12/22 01:40:53;;;;;;;;;;;;;;;;;;5013920;28;20393;-49
2023/12/22 01:43:21;;;;;;;;;;;;;;;;;;5013622;28;20394;-49
2023/12/22 01:45:47;;;;;;;;;;;;;;;;;;5013686;28;19913;-49
2023/12/22 01:48:13;;;;;;;;;;;;;;;;;;5013768;28;20353;-51
2023/12/22 01:50:39;;;;;;;;;;;;;;;;;;4979900;28;19920;-50
2023/12/22 01:53:05;;;;;;;;;;;;;;;;;;4996107;28;20008;-51
2023/12/22 01:55:32;;;;;;;;;;;;;;;;;;5013458;28;20405;-49
2023/12/22 01:57:58;;;;;;;;;;;;;;;;;;5013556;28;19909;-49
2023/12/22 02:00:24;;;;;;;;;;;;;;;;;;5013540;28;19924;-49
2023/12/22 02:02:50;;;;;;;;;;;;;;;;;;5013472;28;19910;-50
2023/12/22 02:05:16;;;;;;;;;;;;;;;;;;5013337;28;19917;-52
2023/12/22 02:07:42;;;;;;;;;;;;;;;;;;4993654;28;20375;-51
2023/12/22 02:10:08;;;;;;;;;;;;;;;;;;4993705;28;19914;-52
2023/12/22 02:12:34;;;;;;;;;;;;;;;;;;4993613;28;19910;-54
2023/12/22 02:15:01;;;;;;;;;;;;;;;;;;4976194;28;20370;-51
2023/12/22 02:17:27;;;;;;;;;;;;;;;;;;4993601;28;19917;-52
2023/12/22 02:19:53;;;;;;;;;;;;;;;;;;4993587;28;19921;-54
2023/12/22 02:22:19;;;;;;;;;;;;;;;;;;4993527;28;19925;-53
2023/12/22 02:24:45;;;;;;;;;;;;;;;;;;4993370;28;19918;-52
2023/12/22 02:27:13;;;;;;;;;;;;;;;;;;4993389;28;19910;-54
2023/12/22 02:29:39;;;;;;;;;;;;;;;;;;4993423;28;19917;-49
2023/12/22 02:32:05;;;;;;;;;;;;;;;;;;4993680;28;20316;-49
2023/12/22 02:34:31;;;;;;;;;;;;;;;;;;4993392;28;19913;-50
2023/12/22 02:36:57;;;;;;;;;;;;;;;;;;4993364;28;19910;-51
2023/12/22 02:39:23;;;;;;;;;;;;;;;;;;4993227;28;19941;-51
2023/12/22 02:41:49;;;;;;;;;;;;;;;;;;5002631;28;19917;-52
2023/12/22 02:44:15;;;;;;;;;;;;;;;;;;5011930;28;19917;-51
2023/12/22 02:46:43;;;;;;;;;;;;;;;;;;5012208;28;19913;-51
2023/12/22 02:49:09;;;;;;;;;;;;;;;;;;5012656;28;19918;-52
2023/12/22 02:51:35;;;;;;;;;;;;;;;;;;5012624;28;19917;-51
2023/12/22 02:54:01;;;;;;;;;;;;;;;;;;5012360;28;19920;-50
2023/12/22 02:56:27;;;;;;;;;;;;;;;;;;5011969;28;19918;-53
2023/12/22 02:58:53;;;;;;;;;;;;;;;;;;5012849;28;20058;-51
2023/12/22 03:01:20;;;;;;;;;;;;;;;;;;4994837;28;19959;-50
2023/12/22 03:03:46;;;;;;;;;;;;;;;;;;5012467;28;19914;-51
2023/12/22 03:06:12;;;;;;;;;;;;;;;;;;4994610;28;19916;-52
2023/12/22 03:08:38;;;;;;;;;;;;;;;;;;5012224;28;19918;-51
2023/12/22 03:11:04;;;;;;;;;;;;;;;;;;4994442;28;19910;-50
2023/12/22 03:13:30;;;;;;;;;;;;;;;;;;4994578;28;19928;-53
2023/12/22 03:15:56;;;;;;;;;;;;;;;;;;5011819;28;19928;-51
2023/12/22 03:18:22;;;;;;;;;;;;;;;;;;5012288;28;19921;-52
2023/12/22 03:20:48;;;;;;;;;;;;;;;;;;4994297;28;19910;-51
2023/12/22 03:23:14;;;;;;;;;;;;;;;;;;5011071;28;19913;-49
2023/12/22 03:25:40;;;;;;;;;;;;;;;;;;5011574;28;20349;-53
2023/12/22 03:28:07;;;;;;;;;;;;;;;;;;4994662;28;19928;-49
2023/12/22 03:30:33;;;;;;;;;;;;;;;;;;5012304;28;19909;-50
2023/12/22 03:32:59;;;;;;;;;;;;;;;;;;4994576;28;19913;-49
2023/12/22 03:35:25;;;;;;;;;;;;;;;;;;4978296;28;19910;-53
2023/12/22 03:37:51;;;;;;;;;;;;;;;;;;5012660;28;19913;-51
2023/12/22 03:40:17;;;;;;;;;;;;;;;;;;5012057;28;19948;-49
2023/12/22 03:42:43;;;;;;;;;;;;;;;;;;5011993;28;19918;-48
2023/12/22 03:45:09;;;;;;;;;;;;;;;;;;5012205;28;19909;-50
2023/12/22 03:47:35;;;;;;;;;;;;;;;;;;5012082;28;19914;-52
2023/12/22 03:50:01;;;;;;;;;;;;;;;;;;5012072;28;20313;-50
2023/12/22 03:52:27;;;;;;;;;;;;;;;;;;4994148;28;20004;-49
2023/12/22 03:54:53;;;;;;;;;;;;;;;;;;5011421;28;19909;-50
2023/12/22 03:57:19;;;;;;;;;;;;;;;;;;5015643;28;19964;-51
2023/12/22 03:59:45;;;;;;;;;;;;;;;;;;5015557;28;19909;-50
2023/12/22 04:02:12;;;;;;;;;;;;;;;;;;5015445;28;20298;-50
2023/12/22 04:04:38;;;;;;;;;;;;;;;;;;5015285;28;19913;-49
2023/12/22 04:07:04;;;;;;;;;;;;;;;;;;5015623;28;19924;-52
2023/12/22 04:09:30;;;;;;;;;;;;;;;;;;4997898;28;19914;-49
2023/12/22 04:11:56;;;;;;;;;;;;;;;;;;4997777;28;19971;-51
2023/12/22 04:14:22;;;;;;;;;;;;;;;;;;4997556;28;19913;-56
2023/12/22 04:16:48;;;;;;;;;;;;;;;;;;5015295;28;19913;-50
2023/12/22 04:19:14;;;;;;;;;;;;;;;;;;5015165;28;19935;-50
2023/12/22 04:21:40;;;;;;;;;;;;;;;;;;4974821;28;20350;-49
2023/12/22 04:24:06;;;;;;;;;;;;;;;;;;4995468;28;19925;-49
2023/12/22 04:26:32;;;;;;;;;;;;;;;;;;4978250;28;20382;-48
2023/12/22 04:28:58;;;;;;;;;;;;;;;;;;5010192;28;20374;-49
2023/12/22 04:31:24;;;;;;;;;;;;;;;;;;5014208;28;19979;-49
2023/12/22 04:33:50;;;;;;;;;;;;;;;;;;5015091;28;19917;-49
2023/12/22 04:36:16;;;;;;;;;;;;;;;;;;5014949;28;20024;-51
2023/12/22 04:38:42;;;;;;;;;;;;;;;;;;5014815;28;20386;-49
2023/12/22 04:41:09;;;;;;;;;;;;;;;;;;5015053;28;19913;-50
2023/12/22 04:43:35;;;;;;;;;;;;;;;;;;5066903;23;19925;-46
2023/12/22 04:46:01;;;;;;;;;;;;;;;;;;5040699;28;19963;-46
2023/12/22 04:48:27;;;;;;;;;;;;;;;;;;5051299;28;19917;-46
2023/12/22 04:50:53;;;;;;;;;;;;;;;;;;5053216;28;19912;-47
2023/12/22 04:53:19;;;;;;;;;;;;;;;;;;5054508;28;19915;-46
2023/12/22 04:55:45;;;;;;;;;;;;;;;;;;5052993;28;19917;-46
2023/12/22 04:58:11;;;;;;;;;;;;;;;;;;5053453;28;19909;-46
2023/12/22 05:00:37;;;;;;;;;;;;;;;;;;5053269;28;20066;-46
2023/12/22 05:03:03;;;;;;;;;;;;;;;;;;5054259;28;19909;-48
2023/12/22 05:05:29;;;;;;;;;;;;;;;;;;5054156;28;19958;-46
2023/12/22 05:07:55;;;;;;;;;;;;;;;;;;5053246;28;20006;-47
2023/12/22 05:10:21;;;;;;;;;;;;;;;;;;5054272;28;20357;-47
2023/12/22 05:12:47;;;;;;;;;;;;;;;;;;5054307;28;19983;-47
2023/12/22 05:15:13;;;;;;;;;;;;;;;;;;5052850;28;20047;-46
2023/12/22 05:17:40;;;;;;;;;;;;;;;;;;5054077;28;20292;-47
2023/12/22 05:20:06;;;;;;;;;;;;;;;;;;5053907;28;19988;-46
2023/12/22 05:22:32;;;;;;;;;;;;;;;;;;5053879;28;19923;-47
2023/12/22 05:24:58;;;;;;;;;;;;;;;;;;5053543;28;19913;-47
2023/12/22 05:27:24;;;;;;;;;;;;;;;;;;5054006;28;19916;-47
2023/12/22 05:29:51;;;;;;;;;;;;;;;;;;5052776;28;19924;-47
2023/12/22 05:32:17;;;;;;;;;;;;;;;;;;5052621;28;19909;-48
2023/12/22 05:34:43;;;;;;;;;;;;;;;;;;5053594;28;19913;-45
2023/12/22 05:37:09;;;;;;;;;;;;;;;;;;5053770;28;19909;-47
2023/12/22 05:39:35;;;;;;;;;;;;;;;;;;5053648;28;19913;-47
2023/12/22 05:42:01;;;;;;;;;;;;;;;;;;5053568;28;19913;-48
2023/12/22 05:44:29;;;;;;;;;;;;;;;;;;5053496;28;20369;-47
2023/12/22 05:46:55;;;;;;;;;;;;;;;;;;5053549;28;19915;-47
2023/12/22 05:49:23;;;;;;;;;;;;;;;;;;5053353;28;20365;-48
2023/12/22 05:51:49;;;;;;;;;;;;;;;;;;5053419;28;19909;-47
2023/12/22 05:54:19;;;;;;;;;;;;;;;;;;5053519;28;19919;-47
2023/12/22 05:56:45;;;;;;;;;;;;;;;;;;5053233;28;19908;-48
2023/12/22 05:59:11;;;;;;;;;;;;;;;;;;5053427;28;20300;-47
2023/12/22 06:01:37;;;;;;;;;;;;;;;;;;5035353;28;20444;-47
2023/12/22 06:04:03;;;;;;;;;;;;;;;;;;5053310;28;19962;-47
2023/12/22 06:06:29;;;;;;;;;;;;;;;;;;5051859;28;19916;-47
2023/12/22 06:08:55;;;;;;;;;;;;;;;;;;5053117;28;19923;-48
2023/12/22 06:11:22;;;;;;;;;;;;;;;;;;5053087;28;19908;-47
2023/12/22 06:13:48;;;;;;;;;;;;;;;;;;5036344;28;19913;-48
2023/12/22 06:16:14;;;;;;;;;;;;;;;;;;5032921;28;20722;-47
2023/12/22 06:18:40;;;;;;;;;;;;;;;;;;5033057;28;19921;-48
2023/12/22 06:21:06;;;;;;;;;;;;;;;;;;5033011;28;20293;-47
2023/12/22 06:23:32;;;;;;;;;;;;;;;;;;5032921;28;19947;-46
2023/12/22 06:25:58;;;;;;;;;;;;;;;;;;5032802;28;20338;-48
2023/12/22 06:28:24;;;;;;;;;;;;;;;;;;5031449;28;19927;-47
2023/12/22 06:30:50;;;;;;;;;;;;;;;;;;5031753;28;19913;-46
2023/12/22 06:33:16;;;;;;;;;;;;;;;;;;5032698;28;19963;-47
2023/12/22 06:35:44;;;;;;;;;;;;;;;;;;5032618;28;19916;-47
2023/12/22 06:38:11;;;;;;;;;;;;;;;;;;5031568;28;19913;-46
2023/12/22 06:40:37;;;;;;;;;;;;;;;;;;5032739;28;19909;-48
2023/12/22 06:43:04;;;;;;;;;;;;;;;;;;5031146;28;19921;-46
2023/12/22 06:45:30;;;;;;;;;;;;;;;;;;5032249;28;19916;-46
2023/12/22 06:47:56;;;;;;;;;;;;;;;;;;5025641;28;19932;-47
2023/12/22 06:50:22;;;;;;;;;;;;;;;;;;5020043;28;19917;-46
2023/12/22 06:52:49;;;;;;;;;;;;;;;;;;5011666;28;20345;-46
2023/12/22 06:55:16;;;;;;;;;;;;;;;;;;5012679;28;19917;-46
2023/12/22 06:57:43;;;;;;;;;;;;;;;;;;5012681;28;19913;-45
2023/12/22 07:00:09;;;;;;;;;;;;;;;;;;5012739;28;19916;-47
2023/12/22 07:02:35;;;;;;;;;;;;;;;;;;5012523;28;19914;-46
2023/12/22 07:05:07;;;;;;;;;;;;;;;;;;5011529;28;19925;-50
2023/12/22 07:07:33;;;;;;;;;;;;;;;;;;5019283;28;19913;-46
2023/12/22 07:09:59;;;;;;;;;;;;;;;;;;5032367;28;19916;-47
2023/12/22 07:12:26;;;;;;;;;;;;;;;;;;5030932;28;20360;-46
2023/12/22 07:14:52;;;;;;;;;;;;;;;;;;5032055;28;19970;-46
2023/12/22 07:17:18;;;;;;;;;;;;;;;;;;5024517;28;20362;-47
2023/12/22 07:19:44;;;;;;;;;;;;;;;;;;5011142;28;19920;-46
2023/12/22 07:22:10;;;;;;;;;;;;;;;;;;5012493;28;20000;-48
2023/12/22 07:24:36;;;;;;;;;;;;;;;;;;5012324;28;19909;-45
2023/12/22 07:27:02;;;;;;;;;;;;;;;;;;5011171;28;19914;-47
2023/12/22 07:29:28;;;;;;;;;;;;;;;;;;5010934;28;20366;-48
2023/12/22 07:31:54;;;;;;;;;;;;;;;;;;5015336;28;19954;-48
2023/12/22 07:34:22;;;;;;;;;;;;;;;;;;5016518;28;19910;-48
2023/12/22 07:36:48;;;;;;;;;;;;;;;;;;5015202;28;20367;-48
2023/12/22 07:39:14;;;;;;;;;;;;;;;;;;5016409;28;20386;-48
2023/12/22 07:41:40;;;;;;;;;;;;;;;;;;5014948;28;19913;-48
2023/12/22 07:44:06;;;;;;;;;;;;;;;;;;5016206;28;19920;-49
2023/12/22 07:46:32;;;;;;;;;;;;;;;;;;5014836;28;19913;-47
2023/12/22 07:48:59;;;;;;;;;;;;;;;;;;5014867;28;19913;-48
2023/12/22 07:51:25;;;;;;;;;;;;;;;;;;5014898;28;19932;-48
2023/12/22 07:53:51;;;;;;;;;;;;;;;;;;5016003;28;19956;-47
2023/12/22 07:56:17;;;;;;;;;;;;;;;;;;5015839;28;20355;-47
2023/12/22 07:58:43;;;;;;;;;;;;;;;;;;5014624;28;19963;-47
2023/12/22 08:01:09;;;;;;;;;;;;;;;;;;5015896;28;19914;-45
2023/12/22 08:03:35;;;;;;;;;;;;;;;;;;5015523;28;19914;-47
2023/12/22 08:06:01;;;;;;;;;;;;;;;;;;5015664;28;19968;-46
2023/12/22 08:08:27;;;;;;;;;;;;;;;;;;5014503;28;19917;-48
2023/12/22 08:10:53;;;;;;;;;;;;;;;;;;5015688;28;20337;-50
2023/12/22 08:13:19;;;;;;;;;;;;;;;;;;5015602;28;20395;-51
2023/12/22 08:15:45;;;;;;;;;;;;;;;;;;5015604;28;19940;-47
2023/12/22 08:18:12;;;;;;;;;;;;;;;;;;5015644;28;19940;-48
2023/12/22 08:20:38;;;;;;;;;;;;;;;;;;5015543;28;19914;-53
2023/12/22 08:23:04;;;;;;;;;;;;;;;;;;5021335;28;19914;-51
2023/12/22 08:25:30;;;;;;;;;;;;;;;;;;5033571;28;19917;-49
2023/12/22 08:27:57;;;;;;;;;;;;;;;;;;5033988;28;20027;-48
2023/12/22 08:30:24;;;;;;;;;;;;;;;;;;5033782;28;20618;-48
2023/12/22 08:32:50;;;;;;;;;;;;;;;;;;5033612;28;19967;-48
2023/12/22 08:35:16;;;;;;;;;;;;;;;;;;5033344;28;19924;-50
2023/12/22 08:37:42;;;;;;;;;;;;;;;;;;5033543;28;20427;-50
2023/12/22 08:40:08;;;;;;;;;;;;;;;;;;5033914;28;19913;-50
2023/12/22 08:42:34;;;;;;;;;;;;;;;;;;5031151;28;19917;-49
2023/12/22 08:45:02;;;;;;;;;;;;;;;;;;5033062;28;19979;-49
2023/12/22 08:47:28;;;;;;;;;;;;;;;;;;5034744;28;19945;-48
2023/12/22 08:49:54;;;;;;;;;;;;;;;;;;5034777;28;20378;-48
2023/12/22 08:52:20;;;;;;;;;;;;;;;;;;5034735;28;19944;-48
2023/12/22 08:54:46;;;;;;;;;;;;;;;;;;5034606;28;19983;-49
2023/12/22 08:57:12;;;;;;;;;;;;;;;;;;5033290;28;20361;-49
2023/12/22 08:59:38;;;;;;;;;;;;;;;;;;5033524;28;19913;-49
2023/12/22 09:02:05;;;;;;;;;;;;;;;;;;5034584;28;19982;-53
2023/12/22 09:04:31;;;;;;;;;;;;;;;;;;5034492;28;19913;-48
2023/12/22 09:06:57;;;;;;;;;;;;;;;;;;5034442;28;19909;-49
2023/12/22 09:09:24;;;;;;;;;;;;;;;;;;5034283;28;20396;-48
2023/12/22 09:11:50;;;;;;;;;;;;;;;;;;5034585;28;20387;-49
2023/12/22 09:14:16;;;;;;;;;;;;;;;;;;5034630;28;19920;-48
2023/12/22 09:16:44;;;;;;;;;;;;;;;;;;5033961;28;19909;-48
2023/12/22 09:19:10;;;;;;;;;;;;;;;;;;5034096;28;19913;-48
2023/12/22 09:21:36;;;;;;;;;;;;;;;;;;5034015;28;19909;-49
2023/12/22 09:24:02;;;;;;;;;;;;;;;;;;5034012;28;19913;-48
2023/12/22 09:26:28;;;;;;;;;;;;;;;;;;5032733;28;19909;-48
2023/12/22 09:28:54;;;;;;;;;;;;;;;;;;5033977;28;19927;-48
2023/12/22 09:31:22;;;;;;;;;;;;;;;;;;5033822;28;19944;-49
2023/12/22 09:33:48;;;;;;;;;;;;;;;;;;5034035;28;19991;-51
2023/12/22 09:36:14;;;;;;;;;;;;;;;;;;5033710;28;19926;-50
2023/12/22 09:38:41;;;;;;;;;;;;;;;;;;5032576;28;19974;-51
2023/12/22 09:41:07;;;;;;;;;;;;;;;;;;5032569;28;19958;-48
2023/12/22 09:43:33;;;;;;;;;;;;;;;;;;5033881;28;20373;-48
2023/12/22 09:45:59;;;;;;;;;;;;;;;;;;5033506;28;19916;-48
2023/12/22 09:48:29;;;;;;;;;;;;;;;;;;5033511;28;20324;-48
2023/12/22 09:50:55;;;;;;;;;;;;;;;;;;5033462;28;19916;-48
2023/12/22 09:53:21;;;;;;;;;;;;;;;;;;5031820;28;20004;-49
2023/12/22 09:55:47;;;;;;;;;;;;;;;;;;5033300;28;19917;-48
2023/12/22 09:58:13;;;;;;;;;;;;;;;;;;5032129;28;19913;-48
2023/12/22 10:00:39;;;;;;;;;;;;;;;;;;5033226;28;19913;-48
2023/12/22 10:03:06;;;;;;;;;;;;;;;;;;5033166;28;19913;-48
2023/12/22 10:05:32;;;;;;;;;;;;;;;;;;5032948;28;19953;-49
2023/12/22 10:07:58;;;;;;;;;;;;;;;;;;5031959;28;19917;-48
2023/12/22 10:10:24;;;;;;;;;;;;;;;;;;5033191;28;19920;-48
2023/12/22 10:12:50;;;;;;;;;;;;;;;;;;5033143;28;19940;-49
2023/12/22 10:15:16;;;;;;;;;;;;;;;;;;5033230;28;19920;-49
2023/12/22 10:17:42;;;;;;;;;;;;;;;;;;5032907;28;19920;-49
2023/12/22 10:20:08;;;;;;;;;;;;;;;;;;5031767;28;19936;-48
2023/12/22 10:22:34;;;;;;;;;;;;;;;;;;5032883;28;19917;-52
2023/12/22 10:25:00;;;;;;;;;;;;;;;;;;5032784;28;19913;-49
2023/12/22 10:27:26;;;;;;;;;;;;;;;;;;5031649;28;19959;-48
2023/12/22 10:29:52;;;;;;;;;;;;;;;;;;5032869;28;19917;-49
2023/12/22 10:32:18;;;;;;;;;;;;;;;;;;5031510;28;19919;-49
2023/12/22 10:34:44;;;;;;;;;;;;;;;;;;5032457;28;20004;-49
2023/12/22 10:37:12;;;;;;;;;;;;;;;;;;5026724;28;19928;-49
2023/12/22 10:39:38;;;;;;;;;;;;;;;;;;5009795;28;20382;-48
2023/12/22 10:42:04;;;;;;;;;;;;;;;;;;5033027;28;19914;-48
2023/12/22 10:44:30;;;;;;;;;;;;;;;;;;5031105;28;19913;-46
2023/12/22 10:46:57;;;;;;;;;;;;;;;;;;5032550;28;19919;-47
2023/12/22 10:49:23;;;;;;;;;;;;;;;;;;5030947;28;20321;-47
2023/12/22 10:51:49;;;;;;;;;;;;;;;;;;5031403;28;20325;-48
2023/12/22 10:54:15;;;;;;;;;;;;;;;;;;5032455;28;20305;-48
2023/12/22 10:56:41;;;;;;;;;;;;;;;;;;5032448;28;19920;-48
2023/12/22 10:59:07;;;;;;;;;;;;;;;;;;5028501;28;19953;-48
2023/12/22 11:01:33;;;;;;;;;;;;;;;;;;5030484;28;19917;-48
2023/12/22 11:03:59;;;;;;;;;;;;;;;;;;5029250;28;20321;-49
2023/12/22 11:06:26;;;;;;;;;;;;;;;;;;5028594;28;19924;-48
2023/12/22 11:08:53;;;;;;;;;;;;;;;;;;5029289;28;19924;-48
2023/12/22 11:11:19;;;;;;;;;;;;;;;;;;5030655;28;19917;-48
2023/12/22 11:13:45;;;;;;;;;;;;;;;;;;5030362;28;19917;-48
2023/12/22 11:16:11;;;;;;;;;;;;;;;;;;5030390;28;19960;-48
2023/12/22 11:18:37;;;;;;;;;;;;;;;;;;5030585;28;19913;-47
2023/12/22 11:21:03;;;;;;;;;;;;;;;;;;5030585;28;19964;-48
2023/12/22 11:23:29;;;;;;;;;;;;;;;;;;5030518;28;20305;-47
2023/12/22 11:25:55;;;;;;;;;;;;;;;;;;5030595;28;20300;-49
2023/12/22 11:28:21;;;;;;;;;;;;;;;;;;5030594;28;19921;-48
2023/12/22 11:30:48;;;;;;;;;;;;;;;;;;5030766;28;19917;-47
2023/12/22 11:33:14;;;;;;;;;;;;;;;;;;5030615;28;20043;-47
2023/12/22 11:35:40;;;;;;;;;;;;;;;;;;5030460;28;19913;-48
2023/12/22 11:38:06;;;;;;;;;;;;;;;;;;5035770;28;19923;-49
2023/12/22 11:40:32;;;;;;;;;;;;;;;;;;5038343;28;19917;-47
2023/12/22 11:42:58;;;;;;;;;;;;;;;;;;5045982;28;19943;-49
2023/12/22 11:45:24;;;;;;;;;;;;;;;;;;5047177;28;20417;-47
2023/12/22 11:47:50;;;;;;;;;;;;;;;;;;5036656;28;20351;-48
2023/12/22 11:50:16;;;;;;;;;;;;;;;;;;5037985;28;20332;-48
2023/12/22 11:52:42;;;;;;;;;;;;;;;;;;5038615;28;19916;-47
2023/12/22 11:55:08;;;;;;;;;;;;;;;;;;5049710;28;19971;-47
2023/12/22 11:57:34;;;;;;;;;;;;;;;;;;5033646;28;19920;-48
2023/12/22 12:00:01;;;;;;;;;;;;;;;;;;5036122;28;20325;-48
2023/12/22 12:02:27;;;;;;;;;;;;;;;;;;5031292;28;20382;-47
2023/12/22 12:04:53;;;;;;;;;;;;;;;;;;5048669;28;19925;-48
2023/12/22 12:07:19;;;;;;;;;;;;;;;;;;5049862;28;19952;-51
2023/12/22 12:09:47;;;;;;;;;;;;;;;;;;5029959;28;19921;-48
2023/12/22 12:12:13;;;;;;;;;;;;;;;;;;5036345;28;19917;-49
2023/12/22 12:14:39;;;;;;;;;;;;;;;;;;5031719;28;19917;-57
2023/12/22 12:17:07;;;;;;;;;;;;;;;;;;5046955;28;19971;-46
2023/12/22 12:19:33;;;;;;;;;;;;;;;;;;5047615;28;19919;-48
2023/12/22 12:21:59;;;;;;;;;;;;;;;;;;5039257;28;19948;-48
2023/12/22 12:24:25;;;;;;;;;;;;;;;;;;5033536;28;19940;-48
2023/12/22 12:26:51;;;;;;;;;;;;;;;;;;5033926;28;20433;-47
2023/12/22 12:29:17;;;;;;;;;;;;;;;;;;5032307;28;19952;-48
2023/12/22 12:31:44;;;;;;;;;;;;;;;;;;5021847;28;20004;-48
2023/12/22 12:34:10;;;;;;;;;;;;;;;;;;5034796;28;20326;-49
2023/12/22 12:36:36;;;;;;;;;;;;;;;;;;5040856;28;19916;-49
2023/12/22 12:39:02;;;;;;;;;;;;;;;;;;5027405;28;19917;-49
2023/12/22 12:41:28;;;;;;;;;;;;;;;;;;5032364;28;19917;-50
2023/12/22 12:43:54;;;;;;;;;;;;;;;;;;5030734;28;19925;-48
2023/12/22 12:46:20;;;;;;;;;;;;;;;;;;5035341;28;19966;-48
2023/12/22 12:48:46;;;;;;;;;;;;;;;;;;5051951;28;19917;-48
2023/12/22 12:51:12;;;;;;;;;;;;;;;;;;5047619;28;19920;-49
2023/12/22 12:53:39;;;;;;;;;;;;;;;;;;5045452;28;19920;-49
2023/12/22 12:56:05;;;;;;;;;;;;;;;;;;5031723;28;19999;-49
2023/12/22 12:58:31;;;;;;;;;;;;;;;;;;5031082;28;19921;-48
2023/12/22 13:00:59;;;;;;;;;;;;;;;;;;5034571;28;19913;-48
2023/12/22 13:03:25;;;;;;;;;;;;;;;;;;5050717;28;19912;-49
2023/12/22 13:05:51;;;;;;;;;;;;;;;;;;5051332;28;20373;-48
2023/12/22 13:08:17;;;;;;;;;;;;;;;;;;5041767;28;20460;-48
2023/12/22 13:10:43;;;;;;;;;;;;;;;;;;5051325;28;20335;-50
2023/12/22 13:13:09;;;;;;;;;;;;;;;;;;5044812;28;19913;-50
2023/12/22 13:15:35;;;;;;;;;;;;;;;;;;5046018;28;19920;-49
2023/12/22 13:18:01;;;;;;;;;;;;;;;;;;5033159;28;19913;-47
2023/12/22 13:20:27;;;;;;;;;;;;;;;;;;5051472;28;19919;-49
2023/12/22 13:22:54;;;;;;;;;;;;;;;;;;5026760;28;19913;-48
2023/12/22 13:25:21;;;;;;;;;;;;;;;;;;5030314;28;19913;-48
2023/12/22 13:27:47;;;;;;;;;;;;;;;;;;5030977;28;19917;-48
2023/12/22 13:30:13;;;;;;;;;;;;;;;;;;5049283;28;19917;-48
2023/12/22 13:32:39;;;;;;;;;;;;;;;;;;5031528;28;19924;-49
2023/12/22 13:35:05;;;;;;;;;;;;;;;;;;5030153;28;20004;-49
2023/12/22 13:37:31;;;;;;;;;;;;;;;;;;5032331;28;19917;-49
2023/12/22 13:39:58;;;;;;;;;;;;;;;;;;5047850;28;19952;-50
2023/12/22 13:42:24;;;;;;;;;;;;;;;;;;4966781;28;2322263;-49
2023/12/22 13:44:52;;;;;;;;;;;;;;;;;;5032092;28;19917;-49
2023/12/22 13:47:18;;;;;;;;;;;;;;;;;;5050256;28;20074;-50
2023/12/22 13:49:44;;;;;;;;;;;;;;;;;;5035880;28;19921;-50
2023/12/22 13:52:10;;;;;;;;;;;;;;;;;;5036448;28;19928;-52
2023/12/22 13:54:36;;;;;;;;;;;;;;;;;;5051199;28;19921;-49
2023/12/22 13:57:02;;;;;;;;;;;;;;;;;;5048630;28;20377;-52
2023/12/22 13:59:28;;;;;;;;;;;;;;;;;;5038048;28;20389;-50
2023/12/22 14:01:54;;;;;;;;;;;;;;;;;;5044088;28;19921;-50
2023/12/22 14:04:20;;;;;;;;;;;;;;;;;;5038356;28;19913;-49
2023/12/22 14:06:46;;;;;;;;;;;;;;;;;;5051578;28;19917;-50
2023/12/22 14:09:13;;;;;;;;;;;;;;;;;;5041521;28;20003;-50
2023/12/22 14:11:39;;;;;;;;;;;;;;;;;;5031605;28;19917;-49
2023/12/22 14:14:05;;;;;;;;;;;;;;;;;;5051491;28;19917;-49
2023/12/22 14:16:31;;;;;;;;;;;;;;;;;;5039099;28;19967;-48
2023/12/22 14:18:57;;;;;;;;;;;;;;;;;;5034150;28;19949;-49
2023/12/22 14:21:23;;;;;;;;;;;;;;;;;;5048057;28;19920;-49
2023/12/22 14:23:49;;;;;;;;;;;;;;;;;;5051722;28;19916;-49
2023/12/22 14:26:16;;;;;;;;;;;;;;;;;;5046918;28;19958;-51
2023/12/22 14:28:42;;;;;;;;;;;;;;;;;;5049167;28;20357;-51
2023/12/22 14:31:08;;;;;;;;;;;;;;;;;;5028113;28;20251;-51
2023/12/22 14:33:34;;;;;;;;;;;;;;;;;;5029725;28;19986;-47
2023/12/22 14:36:00;;;;;;;;;;;;;;;;;;5031273;28;19917;-47
2023/12/22 14:38:26;;;;;;;;;;;;;;;;;;5030626;28;19966;-49
2023/12/22 14:40:52;;;;;;;;;;;;;;;;;;5029241;28;19952;-47
2023/12/22 14:43:18;;;;;;;;;;;;;;;;;;5031229;28;20262;-46
2023/12/22 14:45:44;;;;;;;;;;;;;;;;;;5031389;28;19933;-48
2023/12/22 14:48:10;;;;;;;;;;;;;;;;;;5031393;28;19917;-46
2023/12/22 14:50:37;;;;;;;;;;;;;;;;;;5031233;28;19913;-47
2023/12/22 14:53:04;;;;;;;;;;;;;;;;;;5030947;28;19920;-45
2023/12/22 14:55:31;;;;;;;;;;;;;;;;;;5029799;28;19914;-46
2023/12/22 14:57:57;;;;;;;;;;;;;;;;;;5032332;28;19959;-46
2023/12/22 15:00:23;;;;;;;;;;;;;;;;;;5034999;28;19921;-49
2023/12/22 15:02:49;;;;;;;;;;;;;;;;;;5050876;28;19913;-48
2023/12/22 15:05:15;;;;;;;;;;;;;;;;;;5048186;28;19924;-50
2023/12/22 15:07:41;;;;;;;;;;;;;;;;;;5032175;28;19917;-51
2023/12/22 15:10:07;;;;;;;;;;;;;;;;;;5035109;28;20023;-48
2023/12/22 15:12:36;;;;;;;;;;;;;;;;;;5033135;28;20385;-47
2023/12/22 15:15:02;;;;;;;;;;;;;;;;;;5030784;28;19955;-49
2023/12/22 15:17:28;;;;;;;;;;;;;;;;;;5030357;28;19913;-50
2023/12/22 15:19:55;;;;;;;;;;;;;;;;;;5030841;28;19924;-49
2023/12/22 15:22:22;;;;;;;;;;;;;;;;;;5030714;28;19956;-48
2023/12/22 15:24:48;;;;;;;;;;;;;;;;;;5030819;28;19913;-47
2023/12/22 15:27:14;;;;;;;;;;;;;;;;;;5031003;28;19913;-48
2023/12/22 15:29:40;;;;;;;;;;;;;;;;;;5014266;28;20286;-47
2023/12/22 15:32:06;;;;;;;;;;;;;;;;;;5032057;28;20342;-48
2023/12/22 15:34:32;;;;;;;;;;;;;;;;;;5031940;28;19913;-49
2023/12/22 15:36:58;;;;;;;;;;;;;;;;;;5032070;28;19991;-48
2023/12/22 15:39:25;;;;;;;;;;;;;;;;;;5031958;28;19917;-47
2023/12/22 15:41:51;;;;;;;;;;;;;;;;;;5031841;28;19913;-53
2023/12/22 15:44:17;;;;;;;;;;;;;;;;;;5030788;28;19924;-48
2023/12/22 15:46:43;;;;;;;;;;;;;;;;;;5031948;28;20012;-47
2023/12/22 15:49:09;;;;;;;;;;;;;;;;;;5031849;28;19917;-47
2023/12/22 15:51:35;;;;;;;;;;;;;;;;;;5032703;28;20008;-47
2023/12/22 15:54:02;;;;;;;;;;;;;;;;;;5035799;28;19917;-48
2023/12/22 15:56:28;;;;;;;;;;;;;;;;;;5035522;28;19913;-48
2023/12/22 15:58:54;;;;;;;;;;;;;;;;;;5034680;28;19913;-48
2023/12/22 16:01:20;;;;;;;;;;;;;;;;;;5035702;28;19968;-52
2023/12/22 16:03:49;;;;;;;;;;;;;;;;;;5035636;28;20350;-48
2023/12/22 16:06:15;;;;;;;;;;;;;;;;;;5035481;28;19925;-47
2023/12/22 16:08:41;;;;;;;;;;;;;;;;;;5035504;28;19932;-46
2023/12/22 16:11:08;;;;;;;;;;;;;;;;;;5034406;28;20302;-48
2023/12/22 16:13:34;;;;;;;;;;;;;;;;;;5034184;28;19913;-49
2023/12/22 16:16:00;;;;;;;;;;;;;;;;;;5035334;28;19913;-47
2023/12/22 16:18:26;;;;;;;;;;;;;;;;;;5033049;28;20427;-49
2023/12/22 16:20:52;;;;;;;;;;;;;;;;;;5032488;28;20028;-48
2023/12/22 16:23:26;;;;;;;;;;;;;;;;;;5032785;28;19960;-49
2023/12/22 16:25:55;;;;;;;;;;;;;;;;;;5035206;28;19917;-47
2023/12/22 16:28:21;;;;;;;;;;;;;;;;;;5035225;28;19955;-47
2023/12/22 16:30:47;;;;;;;;;;;;;;;;;;5034658;28;20008;-48
2023/12/22 16:33:14;;;;;;;;;;;;;;;;;;5034394;28;19932;-48
2023/12/22 16:35:40;;;;;;;;;;;;;;;;;;5034960;28;19920;-47
2023/12/22 16:38:06;;;;;;;;;;;;;;;;;;5034960;28;20395;-47